You are listening to:
KSDF Ground/Tower #1 - Louisville, Kentucky, United States

KSDF 262356Z 21004KT 10SM FEW015 SCT250 23/20 A3002 RMK AO2 SLP160 60041 T02330200 10311 20217 56018

If stream does not start automatically press the play button